createdAt,value
2019-04-22T09:04:47.990Z,18.08
2019-04-22T09:07:28.983Z,18.17
2019-04-22T09:09:56.926Z,18.28
2019-04-22T09:12:45.678Z,18.41
2019-04-22T09:14:49.770Z,18.48
2019-04-22T09:20:00.394Z,18.60
2019-04-22T09:22:26.318Z,18.68
2019-04-22T09:24:58.650Z,18.75
2019-04-22T09:27:37.107Z,18.83
2019-04-22T09:29:58.551Z,18.92
2019-04-22T09:32:34.781Z,18.98
2019-04-22T09:35:21.524Z,19.05
2019-04-22T09:37:34.431Z,19.14
2019-04-22T09:40:09.131Z,19.22
2019-04-22T09:42:35.495Z,19.30
2019-04-22T09:45:00.259Z,19.38
2019-04-22T09:47:36.054Z,19.45
2019-04-22T09:50:08.248Z,19.53
2019-04-22T09:52:37.908Z,19.63
2019-04-22T09:55:06.152Z,19.76
2019-04-22T09:57:31.418Z,19.90
2019-04-22T10:00:36.481Z,20.03
2019-04-22T10:02:57.565Z,20.15
2019-04-22T10:05:27.486Z,20.20
2019-04-22T10:08:08.086Z,20.30
2019-04-22T10:10:41.784Z,20.39
2019-04-22T10:13:23.630Z,20.49
2019-04-22T10:15:48.054Z,20.58
2019-04-22T10:18:16.307Z,20.67
2019-04-22T10:21:00.624Z,20.77
2019-04-22T10:23:31.593Z,20.84
2019-04-22T10:26:00.807Z,20.90
2019-04-22T10:31:05.412Z,21.00
2019-04-22T10:33:26.891Z,21.06
2019-04-22T10:35:39.455Z,21.13
2019-04-22T10:38:08.337Z,21.19
2019-04-22T10:40:38.776Z,21.21
2019-04-22T10:43:09.630Z,21.20
2019-04-22T10:45:39.801Z,21.26
2019-04-22T10:48:10.472Z,21.32
2019-04-22T10:50:44.358Z,21.39
2019-04-22T10:53:15.443Z,21.41
2019-04-22T10:55:47.097Z,21.42
2019-04-22T10:58:16.967Z,21.42
2019-04-22T11:00:47.381Z,21.45
2019-04-22T11:03:18.071Z,21.51
2019-04-22T11:05:48.405Z,21.61
2019-04-22T11:08:26.036Z,21.71
2019-04-22T11:11:05.841Z,21.80
2019-04-22T11:13:20.125Z,21.89
2019-04-22T11:15:48.922Z,21.90
2019-04-22T11:18:18.003Z,21.89
2019-04-22T11:20:47.421Z,21.95
2019-04-22T11:23:16.419Z,21.99
2019-04-22T11:25:46.082Z,22.02
2019-04-22T11:28:16.017Z,22.06
2019-04-22T11:30:44.809Z,22.13
2019-04-22T11:33:14.272Z,22.19
2019-04-22T11:35:43.827Z,22.23
2019-04-22T11:38:13.117Z,22.31
2019-04-22T11:40:47.501Z,22.41
2019-04-22T11:43:12.467Z,22.42
2019-04-22T11:45:41.568Z,22.41
2019-04-22T11:48:11.179Z,22.34
2019-04-22T11:50:40.127Z,22.28
2019-04-22T11:53:09.205Z,22.24
2019-04-22T11:55:37.776Z,22.26
2019-04-22T11:58:06.849Z,22.32
2019-04-22T12:00:37.034Z,22.38
2019-04-22T12:03:07.343Z,22.45
2019-04-22T12:05:37.598Z,22.50
2019-04-22T12:08:09.018Z,22.52
2019-04-22T12:10:45.070Z,22.52
2019-04-22T12:13:08.104Z,22.54
2019-04-22T12:15:37.283Z,22.58
2019-04-22T12:18:07.072Z,22.62
2019-04-22T12:20:36.960Z,22.67
2019-04-22T12:23:07.401Z,22.71
2019-04-22T12:25:47.590Z,22.74
2019-04-22T12:28:08.971Z,22.85
2019-04-22T12:30:39.338Z,22.98
2019-04-22T12:33:10.929Z,23.10
2019-04-22T12:35:38.831Z,23.23
2019-04-22T12:38:10.304Z,23.31
2019-04-22T12:40:46.755Z,23.36
2019-04-22T12:43:10.697Z,23.38
2019-04-22T12:45:40.264Z,23.45
2019-04-22T12:48:10.116Z,23.57
2019-04-22T12:50:42.443Z,23.71
2019-04-22T12:53:13.886Z,23.85
2019-04-22T12:55:39.969Z,23.90
2019-04-22T12:58:09.723Z,23.85
2019-04-22T13:00:38.673Z,23.85
2019-04-22T13:03:07.719Z,23.90
2019-04-22T13:05:37.555Z,23.95
2019-04-22T13:08:07.474Z,24.02
2019-04-22T13:10:45.765Z,24.20
2019-04-22T13:13:07.111Z,24.36
2019-04-22T13:15:37.018Z,24.67
2019-04-22T13:18:19.029Z,25.02
2019-04-22T13:20:36.567Z,25.31
2019-04-22T13:23:05.169Z,25.55
2019-04-22T13:25:34.709Z,25.78
2019-04-22T13:28:03.285Z,25.95
2019-04-22T13:30:32.685Z,26.17
2019-04-22T13:33:01.196Z,26.42
2019-04-22T13:35:29.947Z,26.58
2019-04-22T13:37:59.348Z,26.69
2019-04-22T13:40:28.868Z,26.77
2019-04-22T13:42:58.688Z,26.82
2019-04-22T13:45:27.680Z,26.88
2019-04-22T13:48:10.995Z,26.89
2019-04-22T13:50:59.506Z,27.05
2019-04-22T13:53:37.713Z,27.24
2019-04-22T13:55:57.870Z,27.38
2019-04-22T13:58:15.713Z,27.45
2019-04-22T14:00:36.559Z,27.47
2019-04-22T14:03:10.650Z,27.53
2019-04-22T14:05:44.931Z,27.70
2019-04-22T14:08:19.973Z,27.80
2019-04-22T14:10:50.297Z,27.87
2019-04-22T14:15:59.432Z,27.95
2019-04-22T14:18:30.750Z,27.89
2019-04-22T14:21:00.969Z,27.68
2019-04-22T14:23:32.981Z,27.35
2019-04-22T14:26:02.851Z,26.89
2019-04-22T14:28:35.505Z,26.47
2019-04-22T14:31:06.632Z,26.25
2019-04-22T14:33:38.365Z,26.10
2019-04-22T14:36:07.468Z,26.14
2019-04-22T14:38:36.846Z,26.45
2019-04-22T14:41:10.190Z,26.89
2019-04-22T14:44:42.444Z,27.13
2019-04-22T14:49:02.891Z,27.44
2019-04-22T14:51:35.871Z,27.64
2019-04-22T14:54:01.202Z,27.95
2019-04-22T14:56:12.806Z,28.14
2019-04-22T14:58:42.645Z,28.10
2019-04-22T15:01:12.919Z,28.07
2019-04-22T15:03:44.021Z,28.09
2019-04-22T15:06:12.585Z,28.16
2019-04-22T15:08:42.633Z,28.27
2019-04-22T15:11:14.865Z,28.34
2019-04-22T15:13:43.572Z,28.29
2019-04-22T15:16:29.957Z,28.22
2019-04-22T15:19:00.127Z,28.20
2019-04-22T15:21:32.457Z,28.32
2019-04-22T15:24:02.855Z,28.26
2019-04-22T15:26:32.613Z,28.18
2019-04-22T15:29:01.276Z,28.23
2019-04-22T15:31:31.340Z,28.38
2019-04-22T15:34:00.579Z,28.48
2019-04-22T15:36:30.319Z,28.52
2019-04-22T15:39:00.096Z,28.52
2019-04-22T15:41:28.781Z,28.55
2019-04-22T15:43:57.527Z,28.53
2019-04-22T15:46:27.730Z,28.55
2019-04-22T15:48:57.928Z,28.49
2019-04-22T15:51:26.807Z,28.42
2019-04-22T15:53:58.075Z,28.23
2019-04-22T15:56:26.654Z,27.98
2019-04-22T15:58:55.675Z,27.90
2019-04-22T16:01:29.810Z,27.86
2019-04-22T16:03:54.773Z,27.89
2019-04-22T16:06:26.176Z,27.91
2019-04-22T16:08:55.993Z,27.77
2019-04-22T16:11:24.542Z,27.58
2019-04-22T16:13:54.572Z,27.35
2019-04-22T16:16:24.782Z,27.11
2019-04-22T16:18:54.186Z,26.83
2019-04-22T16:21:37.129Z,26.69
2019-04-22T16:23:56.430Z,26.62
2019-04-22T16:26:39.911Z,26.45
2019-04-22T16:29:11.634Z,26.28
2019-04-22T16:31:39.727Z,26.13
2019-04-22T16:34:09.458Z,26.01
2019-04-22T16:36:40.749Z,25.79
2019-04-22T16:39:13.082Z,25.52
2019-04-22T16:41:42.557Z,25.35
2019-04-22T16:44:12.484Z,25.34
2019-04-22T16:46:41.711Z,25.24
2019-04-22T16:49:13.783Z,25.12
2019-04-22T16:51:43.118Z,25.02
2019-04-22T16:54:11.890Z,24.95
2019-04-22T16:56:41.806Z,24.79
2019-04-22T16:59:10.881Z,24.63
2019-04-22T17:01:44.012Z,24.40
2019-04-22T17:04:20.817Z,24.19
2019-04-22T17:06:51.678Z,23.99
2019-04-22T17:09:21.503Z,23.78
2019-04-22T17:11:51.969Z,23.60
2019-04-22T17:14:28.438Z,23.40
2019-04-22T17:16:50.858Z,23.29
2019-04-22T17:19:21.654Z,23.18
2019-04-22T17:21:51.135Z,23.21
2019-04-22T17:24:21.657Z,23.24
2019-04-22T17:26:50.691Z,23.25
2019-04-22T17:29:20.973Z,23.17
2019-04-22T17:31:58.372Z,23.01
2019-04-22T17:34:25.478Z,22.76
2019-04-22T17:36:55.239Z,22.53
2019-04-22T17:39:35.962Z,22.35
2019-04-22T17:42:18.417Z,22.15
2019-04-22T17:45:01.090Z,21.96
2019-04-22T17:47:23.445Z,21.81
2019-04-22T17:50:10.064Z,21.71
2019-04-22T17:52:38.918Z,21.49
2019-04-22T17:54:56.160Z,21.25
2019-04-22T17:57:32.511Z,21.00
2019-04-22T18:00:01.629Z,20.79
2019-04-22T18:02:32.644Z,20.65
2019-04-22T18:04:53.332Z,20.54
2019-04-22T18:07:38.468Z,20.41
2019-04-22T18:12:43.886Z,20.18
2019-04-22T18:15:10.898Z,19.97
2019-04-22T18:17:41.666Z,19.78
2019-04-22T18:20:09.436Z,19.59
2019-04-22T18:22:29.348Z,19.42
2019-04-22T18:25:01.563Z,19.26
2019-04-22T18:27:48.525Z,19.13
2019-04-22T18:30:03.991Z,18.98
2019-04-22T18:32:42.498Z,18.83
2019-04-22T18:35:11.820Z,18.68
2019-04-22T18:37:43.717Z,18.51
2019-04-22T18:40:14.969Z,18.37
2019-04-22T18:42:45.842Z,18.26
2019-04-22T18:45:30.060Z,18.17
2019-04-22T18:47:38.698Z,18.06
2019-04-22T18:50:10.646Z,17.96
2019-04-22T18:53:02.246Z,17.88
2019-04-22T18:55:28.405Z,17.78
2019-04-22T18:58:01.774Z,17.68
2019-04-22T19:00:29.318Z,17.59
2019-04-22T19:03:09.243Z,17.53
2019-04-22T19:05:49.480Z,17.42
2019-04-22T19:08:29.142Z,17.36
2019-04-22T19:11:02.482Z,17.30
2019-04-22T19:13:53.810Z,17.23
2019-04-22T19:16:17.184Z,17.16
2019-04-22T19:18:34.742Z,17.10
2019-04-22T19:21:01.307Z,17.04
2019-04-22T19:23:44.857Z,16.99
2019-04-22T19:26:00.900Z,16.94
2019-04-22T19:28:34.456Z,16.88
2019-04-22T19:31:09.625Z,16.81
2019-04-22T19:33:35.498Z,16.77
2019-04-22T19:36:05.084Z,16.71
2019-04-22T19:38:27.710Z,16.67
2019-04-22T19:41:13.555Z,16.61
2019-04-22T19:43:39.012Z,16.56
2019-04-22T19:46:09.297Z,16.48
2019-04-22T19:51:27.820Z,16.36
2019-04-22T19:53:43.865Z,16.31
2019-04-22T19:56:07.218Z,16.28
2019-04-22T19:58:38.522Z,16.25
2019-04-22T20:01:27.268Z,16.22
2019-04-22T20:04:16.183Z,16.21
2019-04-22T20:06:41.980Z,16.19
2019-04-22T20:09:21.054Z,16.17
2019-04-22T20:11:45.118Z,16.15
2019-04-22T20:14:16.868Z,16.15
2019-04-22T20:16:38.576Z,16.15
2019-04-22T20:19:23.989Z,16.14
2019-04-22T20:21:49.420Z,16.10
2019-04-22T20:24:05.445Z,16.08
2019-04-22T20:26:50.068Z,16.05
2019-04-22T20:29:20.979Z,16.01
2019-04-22T20:31:49.721Z,15.99
2019-04-22T20:34:21.270Z,15.94
2019-04-22T20:36:58.107Z,15.88
2019-04-22T20:39:12.506Z,15.82
2019-04-22T20:41:43.306Z,15.76
2019-04-22T20:44:22.615Z,15.71
2019-04-22T20:46:47.488Z,15.64
2019-04-22T20:49:18.484Z,15.57
2019-04-22T20:51:59.031Z,15.52
2019-04-22T20:54:17.801Z,15.48
2019-04-22T20:56:44.072Z,15.43
2019-04-22T20:59:19.446Z,15.39
2019-04-22T21:01:48.957Z,15.37
2019-04-22T21:04:09.069Z,15.35
2019-04-22T21:06:47.433Z,15.33
2019-04-22T21:09:23.964Z,15.29
2019-04-22T21:11:49.391Z,15.25
2019-04-22T21:14:19.938Z,15.20
2019-04-22T21:16:56.298Z,15.16
2019-04-22T21:19:33.573Z,15.11
2019-04-22T21:21:59.745Z,15.03
2019-04-22T21:24:22.082Z,14.97
2019-04-22T21:26:47.100Z,14.93
2019-04-22T21:29:20.779Z,14.86
2019-04-22T21:31:55.683Z,14.82
2019-04-22T21:34:20.303Z,14.79
2019-04-22T21:37:04.290Z,14.77
2019-04-22T21:39:29.327Z,14.74
2019-04-22T21:41:58.849Z,14.70
2019-04-22T21:44:24.760Z,14.67
2019-04-22T21:47:03.122Z,14.64
2019-04-22T21:49:35.421Z,14.61
2019-04-22T21:52:07.448Z,14.61
2019-04-22T21:54:31.574Z,14.58
2019-04-22T21:57:25.495Z,14.57
2019-04-22T21:59:54.429Z,14.54
2019-04-22T22:02:33.395Z,14.52
2019-04-22T22:04:51.191Z,14.50
2019-04-22T22:07:13.214Z,14.46
2019-04-22T22:09:55.603Z,14.45
2019-04-22T22:12:24.189Z,14.42
2019-04-22T22:14:58.800Z,14.38
2019-04-22T22:17:22.408Z,14.37
2019-04-22T22:19:54.497Z,14.34
2019-04-22T22:22:41.752Z,14.32
2019-04-22T22:24:58.278Z,14.30
2019-04-22T22:27:31.179Z,14.28
2019-04-22T22:30:19.140Z,14.22
2019-04-22T22:32:30.410Z,14.19
2019-04-22T22:35:03.163Z,14.18
2019-04-22T22:37:21.994Z,14.15
2019-04-22T22:39:53.929Z,14.12
2019-04-22T22:42:19.079Z,14.08
2019-04-22T22:44:47.749Z,14.04
2019-04-22T22:47:32.975Z,13.99
2019-04-22T22:50:03.050Z,13.94
2019-04-22T22:55:06.965Z,13.86
2019-04-22T22:57:50.071Z,13.83
2019-04-22T23:00:03.898Z,13.81
2019-04-22T23:02:36.927Z,13.80
2019-04-22T23:05:04.947Z,13.78
2019-04-22T23:07:40.528Z,13.76
2019-04-22T23:10:06.080Z,13.72
2019-04-22T23:15:07.906Z,13.70
2019-04-22T23:17:22.566Z,13.67
2019-04-22T23:19:52.094Z,13.65
2019-04-22T23:22:25.452Z,13.63
2019-04-22T23:25:07.707Z,13.61
2019-04-22T23:27:40.181Z,13.61
2019-04-22T23:30:19.432Z,13.60
2019-04-22T23:33:01.928Z,13.57
2019-04-22T23:35:42.481Z,13.54
2019-04-22T23:38:18.097Z,13.51
2019-04-22T23:40:47.729Z,13.47
2019-04-22T23:43:29.929Z,13.45
2019-04-22T23:46:04.304Z,13.44
2019-04-22T23:48:25.984Z,13.43
2019-04-22T23:51:04.466Z,13.40
2019-04-22T23:54:00.903Z,13.36
2019-04-22T23:56:04.298Z,13.34
